Bourbon Explorer 504 — FJYV — position and weather

sailwx.info

Track history (hours):
 
Tides and Currents Weather Stations Pressure Air Temp Water Temp Dewpoint Dewpoint Depression Visibility Wind Speed Wind Dir Waves Ship Positions

Bourbon Explorer 504

Last reported at 2018-Feb-21 05:00 UTC. Time now 2018-Feb-21 05:28 UTC.
Position S 05°07' E 011°30'.

Length 78 m; draft 5.7 m.

Type: Other ship. MMSI: 228094700.

Date/timePositionNaut miles runAvg speedWind from/ knotsBaromVisibWave heightAir tempDewpointWater temp
2018-Feb-21 05:00S 05°07' E 011°30'3 5.9
2018-Feb-21 04:30S 05°09' E 011°29'3 5.9
2018-Feb-21 04:00S 05°12' E 011°27'3 5.5
2018-Feb-21 03:30S 05°14' E 011°26'3 5.5
2018-Feb-21 02:59S 05°16' E 011°24'1 2.0
2018-Feb-21 02:28S 05°17' E 011°23'0 0.0
2018-Feb-21 02:00S 05°17' E 011°23'0 0.0
2018-Feb-21 01:30S 05°17' E 011°23'0 0.0
2018-Feb-21 00:54S 05°17' E 011°23'0 0.0
2018-Feb-21 00:30S 05°17' E 011°23'0 0.0
2018-Feb-20 23:59S 05°17' E 011°23'0 0.0
2018-Feb-20 23:29S 05°17' E 011°23'0 0.0
2018-Feb-20 22:50S 05°17' E 011°23'0 0.0
2018-Feb-20 22:30S 05°17' E 011°23'0 0.1
2018-Feb-20 22:00S 05°17' E 011°23'0 0.0
2018-Feb-20 21:30S 05°17' E 011°23'0 0.1
2018-Feb-20 21:01S 05°17' E 011°23'0 0.2
2018-Feb-20 20:30S 05°17' E 011°23'0 0.0
2018-Feb-20 20:00S 05°17' E 011°23'0 0.2
2018-Feb-20 19:29S 05°17' E 011°23'0 0.4
2018-Feb-20 19:00S 05°17' E 011°23'0 0.1
2018-Feb-20 18:30S 05°17' E 011°23'0 0.0
2018-Feb-20 18:00S 05°17' E 011°23'0 0.1
2018-Feb-20 17:30S 05°17' E 011°23'0 0.0
2018-Feb-20 17:00S 05°17' E 011°23'0 0.1
2018-Feb-20 16:30S 05°17' E 011°23'0 0.0
2018-Feb-20 16:00S 05°17' E 011°23'0 0.2
2018-Feb-20 15:30S 05°17' E 011°23'1 2.1
2018-Feb-20 14:48S 05°19' E 011°23'1 4.5
2018-Feb-20 14:30S 05°20' E 011°24'0 0.8
2018-Feb-20 14:00S 05°20' E 011°24'0 0.0
2018-Feb-20 13:30S 05°20' E 011°24'0 0.0
2018-Feb-20 13:00S 05°20' E 011°24'0 0.1
2018-Feb-20 12:30S 05°20' E 011°24'0 0.0
2018-Feb-20 12:00S 05°20' E 011°24'0 0.0
2018-Feb-20 11:30S 05°20' E 011°24'0 0.0
2018-Feb-20 10:59S 05°20' E 011°24'0 0.0
2018-Feb-20 10:31S 05°20' E 011°24'0 0.5
2018-Feb-20 10:00S 05°20' E 011°24'0 0.3
2018-Feb-20 09:30S 05°20' E 011°23'2 4.2
2018-Feb-20 09:01S 05°18' E 011°23'0 0.8
2018-Feb-20 08:30S 05°17' E 011°23'0 0.7
2018-Feb-20 08:00S 05°17' E 011°23'0 0.4
2018-Feb-20 07:30S 05°17' E 011°23'1 1.3
2018-Feb-20 07:00S 05°17' E 011°24'0 0.0
2018-Feb-20 06:30S 05°17' E 011°24'0 0.1
2018-Feb-20 05:59S 05°17' E 011°24'1 1.3
2018-Feb-20 05:30S 05°17' E 011°24'2 4.4
2018-Feb-20 04:59S 05°15' E 011°25'2 4.6
2018-Feb-20 04:30S 05°12' E 011°26'2 4.0
2018-Feb-20 03:58S 05°10' E 011°27'2 4.7
2018-Feb-20 03:30S 05°09' E 011°27'2 4.6
2018-Feb-20 03:00S 05°06' E 011°28'3 4.6
2018-Feb-20 02:28S 05°04' E 011°29'2 4.5
2018-Feb-20 02:00S 05°02' E 011°29'3 4.8
2018-Feb-20 01:29S 04°60' E 011°30'4 0.1
2018-Feb-18 20:08S 05°04' E 011°31'0 3.5
2018-Feb-18 20:00S 05°04' E 011°31'2 3.4
2018-Feb-18 19:30S 05°06' E 011°30'2 3.7
2018-Feb-18 18:57S 05°08' E 011°30'2 3.6
2018-Feb-18 18:30S 05°09' E 011°29'2 3.3
2018-Feb-18 18:00S 05°10' E 011°28'2 3.2
2018-Feb-18 17:30S 05°12' E 011°27'1 2.9
2018-Feb-18 17:00S 05°13' E 011°26'1 2.7
2018-Feb-18 16:30S 05°14' E 011°25'2 2.9
2018-Feb-18 15:59S 05°15' E 011°24'2 3.7
2018-Feb-18 15:30S 05°16' E 011°23'1 1.5
2018-Feb-18 15:00S 05°17' E 011°23'0 0.0
2018-Feb-18 14:30S 05°17' E 011°23'0 0.0
2018-Feb-18 14:00S 05°17' E 011°23'0 0.0
2018-Feb-18 13:30S 05°17' E 011°23'0 0.0
2018-Feb-18 13:00S 05°17' E 011°23'0 0.1
2018-Feb-18 12:30S 05°17' E 011°23'0 0.4
2018-Feb-18 12:00S 05°17' E 011°23'0 0.5
2018-Feb-18 11:30S 05°17' E 011°23'0 0.0
2018-Feb-18 11:00S 05°17' E 011°23'0 0.0
2018-Feb-18 10:30S 05°17' E 011°23'0 0.0
2018-Feb-18 10:00S 05°17' E 011°23'0 0.0
2018-Feb-18 09:29S 05°17' E 011°23'0 0.1
2018-Feb-18 09:00S 05°17' E 011°23'0 0.0
2018-Feb-18 08:30S 05°17' E 011°23'0 0.9
2018-Feb-18 08:00S 05°17' E 011°23'1 1.3
2018-Feb-18 07:30S 05°17' E 011°23'0 0.8
2018-Feb-18 07:00S 05°17' E 011°23'0 0.0
2018-Feb-18 06:20S 05°17' E 011°23'0 0.2
2018-Feb-18 06:00S 05°17' E 011°23'0 0.0
2018-Feb-18 05:30S 05°17' E 011°23'0 0.1
2018-Feb-18 05:00S 05°17' E 011°23'0 0.6
2018-Feb-18 04:30S 05°17' E 011°23'0 0.0
2018-Feb-18 04:00S 05°17' E 011°23'0 0.0
2018-Feb-18 03:30S 05°17' E 011°23'0 0.0
2018-Feb-18 02:59S 05°17' E 011°23'0 0.3
2018-Feb-18 02:30S 05°17' E 011°23'0 0.0
2018-Feb-18 02:00S 05°17' E 011°23'0 0.0
2018-Feb-18 01:30S 05°17' E 011°23'0 0.0
2018-Feb-18 01:00S 05°17' E 011°23'0 0.0
2018-Feb-18 00:05S 05°17' E 011°23'0 0.0
2018-Feb-18 00:00S 05°17' E 011°23'0 0.0
2018-Feb-17 23:19S 05°17' E 011°23'0 0.0
2018-Feb-17 23:00S 05°17' E 011°23'0 0.0
2018-Feb-17 22:30S 05°17' E 011°23'0 0.0
2018-Feb-17 22:00S 05°17' E 011°23'0 0.0
2018-Feb-17 21:29S 05°17' E 011°23'0 0.0
2018-Feb-17 20:59S 05°17' E 011°23'0 0.0
2018-Feb-17 20:30S 05°17' E 011°23'0 0.0
2018-Feb-17 19:59S 05°17' E 011°23'0 0.0
2018-Feb-17 19:30S 05°17' E 011°23'0 0.0
2018-Feb-17 18:59S 05°17' E 011°23'0 0.0
2018-Feb-17 18:28S 05°17' E 011°23'0 0.0
2018-Feb-17 18:00S 05°17' E 011°23'0 0.0
2018-Feb-17 17:30S 05°17' E 011°23'0 0.0
2018-Feb-17 17:00S 05°17' E 011°23'0 0.0
2018-Feb-17 16:30S 05°17' E 011°23'0 0.0
2018-Feb-17 16:00S 05°17' E 011°23'0 0.0
2018-Feb-17 15:24S 05°17' E 011°23'0 0.0
2018-Feb-17 15:00S 05°17' E 011°23'0 0.0
2018-Feb-17 14:29S 05°17' E 011°23'0 0.0
2018-Feb-17 13:52S 05°17' E 011°23'0 0.0
2018-Feb-17 13:19S 05°17' E 011°23'0 0.0
2018-Feb-17 13:00S 05°17' E 011°23'0 0.0
2018-Feb-17 12:24S 05°17' E 011°23'0 0.0
2018-Feb-17 12:00S 05°17' E 011°23'0 0.0
2018-Feb-17 11:11S 05°17' E 011°23'0 0.0
2018-Feb-17 10:59S 05°17' E 011°23'0 0.1
2018-Feb-17 10:30S 05°17' E 011°23'0 0.3
2018-Feb-17 10:00S 05°17' E 011°23'0 0.1
2018-Feb-17 09:31S 05°17' E 011°23'0 0.6
2018-Feb-17 09:00S 05°17' E 011°23'0 0.1
2018-Feb-17 08:29S 05°17' E 011°23'0 0.0
2018-Feb-17 07:59S 05°17' E 011°23'0 0.1
2018-Feb-17 07:28S 05°17' E 011°23'0 0.7
2018-Feb-17 07:00S 05°17' E 011°23'1 2.3
2018-Feb-17 06:30S 05°16' E 011°23'0 0.1
2018-Feb-17 05:59S 05°16' E 011°23'0 0.2
2018-Feb-17 05:30S 05°16' E 011°23'0 0.3
2018-Feb-17 05:00S 05°16' E 011°23'0 0.3
2018-Feb-17 04:30S 05°16' E 011°23'0 0.4
2018-Feb-17 04:00S 05°16' E 011°23'0 0.4
2018-Feb-17 03:30S 05°17' E 011°22'0 0.3
2018-Feb-17 03:00S 05°17' E 011°22'0 0.2
2018-Feb-17 02:29S 05°17' E 011°22'0 0.3
2018-Feb-17 02:00S 05°17' E 011°22'0 0.2
2018-Feb-17 01:30S 05°17' E 011°22'0 0.1
2018-Feb-17 01:00S 05°17' E 011°22'0 0.1
2018-Feb-17 00:30S 05°17' E 011°22'0 0.1
2018-Feb-17 00:00S 05°17' E 011°22'2 3.7
2018-Feb-16 23:30S 05°16' E 011°20'3 5.2
2018-Feb-16 23:00S 05°15' E 011°18'3 5.3
2018-Feb-16 22:30S 05°15' E 011°15'1 2.7
2018-Feb-16 22:00S 05°15' E 011°14'0 0.0
2018-Feb-16 21:30S 05°15' E 011°14'0 0.0
2018-Feb-16 21:00S 05°15' E 011°14'0 0.0
2018-Feb-16 20:29S 05°15' E 011°14'0 0.0
2018-Feb-16 20:00S 05°15' E 011°14'0 0.0
2018-Feb-16 19:30S 05°15' E 011°14'0 0.0
2018-Feb-16 18:58S 05°15' E 011°14'0 0.0
2018-Feb-16 18:30S 05°15' E 011°14'0 0.0
2018-Feb-16 18:00S 05°15' E 011°14'0 0.1
2018-Feb-16 17:30S 05°15' E 011°14'0 0.9
2018-Feb-16 17:00S 05°14' E 011°14'0 1.0
2018-Feb-16 16:30S 05°14' E 011°15'4 7.0
2018-Feb-16 15:58S 05°16' E 011°18'3 6.4
2018-Feb-16 15:30S 05°16' E 011°21'3 5.7
2018-Feb-16 15:00S 05°17' E 011°24'1 1.5
2018-Feb-16 14:30S 05°16' E 011°24'0 0.7
2018-Feb-16 13:59S 05°16' E 011°24'1 1.2
2018-Feb-16 13:29S 05°16' E 011°25'0 0.5
2018-Feb-16 12:59S 05°16' E 011°25'0 0.6
2018-Feb-16 12:30S 05°17' E 011°25'0 0.6
2018-Feb-16 12:00S 05°17' E 011°26'0 0.5
2018-Feb-16 11:30S 05°17' E 011°26'0 0.5
2018-Feb-16 11:00S 05°17' E 011°26'0 0.5
2018-Feb-16 10:30S 05°17' E 011°26'0 0.5
2018-Feb-16 10:00S 05°18' E 011°26'0 0.5
2018-Feb-16 09:30S 05°18' E 011°26'0 0.5
2018-Feb-16 09:00S 05°18' E 011°26'0 0.6
2018-Feb-16 08:30S 05°18' E 011°27'0 0.6
2018-Feb-16 08:00S 05°19' E 011°27'0 0.5
2018-Feb-16 07:28S 05°19' E 011°27'0 0.6
2018-Feb-16 07:01S 05°19' E 011°27'2 3.9
2018-Feb-16 06:30S 05°19' E 011°25'2 4.5
2018-Feb-16 06:00S 05°18' E 011°23'0 0.6
2018-Feb-16 05:28S 05°18' E 011°22'0 0.5
2018-Feb-16 05:00S 05°18' E 011°23'0 0.3
2018-Feb-16 04:28S 05°18' E 011°23'0 0.4
2018-Feb-16 04:00S 05°18' E 011°23'0 0.4
2018-Feb-16 03:30S 05°18' E 011°23'1 1.6
2018-Feb-16 03:00S 05°18' E 011°23'2 3.3
2018-Feb-16 02:30S 05°20' E 011°24'0 0.1
2018-Feb-16 02:00S 05°20' E 011°24'0 0.0
2018-Feb-16 01:30S 05°20' E 011°24'0 0.0
2018-Feb-16 01:00S 05°20' E 011°24'0 0.0
2018-Feb-16 00:30S 05°20' E 011°24'0 0.0
2018-Feb-16 00:00S 05°20' E 011°24'0 0.0
2018-Feb-15 23:30S 05°20' E 011°24'0 0.0
2018-Feb-15 23:00S 05°20' E 011°24'0 0.0
2018-Feb-15 22:30S 05°20' E 011°24'0 0.1
2018-Feb-15 22:00S 05°20' E 011°24'0 0.0
2018-Feb-15 21:30S 05°20' E 011°24'0 0.0
2018-Feb-15 21:00S 05°20' E 011°24'0 0.0
2018-Feb-15 20:30S 05°20' E 011°24'0 0.0
2018-Feb-15 20:00S 05°20' E 011°24'0 0.0
2018-Feb-15 19:30S 05°20' E 011°24'0 0.0
2018-Feb-15 18:59S 05°20' E 011°24'0 0.0
2018-Feb-15 18:30S 05°20' E 011°24'0 0.0
2018-Feb-15 18:00S 05°20' E 011°24'0 0.0
2018-Feb-15 17:30S 05°20' E 011°24'0 0.0
2018-Feb-15 17:00S 05°20' E 011°24'0 0.0
2018-Feb-15 16:30S 05°20' E 011°24'0 0.0
2018-Feb-15 16:00S 05°20' E 011°24'0 0.0
2018-Feb-15 15:30S 05°20' E 011°24'0 0.0
2018-Feb-15 15:00S 05°20' E 011°24'0 0.0
2018-Feb-15 14:30S 05°20' E 011°24'0 0.0
2018-Feb-15 14:00S 05°20' E 011°24'0 0.0
2018-Feb-15 13:30S 05°20' E 011°24'0 0.4
2018-Feb-15 13:00S 05°20' E 011°24'1 1.9
2018-Feb-15 12:30S 05°19' E 011°24'3 6.5
2018-Feb-15 12:00S 05°20' E 011°28'0 0.6
2018-Feb-15 11:29S 05°20' E 011°28'0 0.4
2018-Feb-15 11:00S 05°20' E 011°28'0 0.3
2018-Feb-15 10:30S 05°20' E 011°28'0 0.3
2018-Feb-15 10:00S 05°20' E 011°28'0 0.3
2018-Feb-15 09:30S 05°20' E 011°28'0 0.1
2018-Feb-15 08:59S 05°20' E 011°28'0 0.2
2018-Feb-15 08:30S 05°20' E 011°28'0 0.4
2018-Feb-15 08:00S 05°19' E 011°28'0 0.3
2018-Feb-15 06:21S 05°19' E 011°28'0 0.5
2018-Feb-15 05:59S 05°19' E 011°29'1 2.1
2018-Feb-15 05:30S 05°19' E 011°28'3 5.3
2018-Feb-15 05:00S 05°19' E 011°25'1 2.7
2018-Feb-15 04:29S 05°20' E 011°24'0 0.9
2018-Feb-15 04:00S 05°19' E 011°24'1 2.8
2018-Feb-15 03:28S 05°18' E 011°25'3 6.4
2018-Feb-15 03:00S 05°15' E 011°26'3 6.5
2018-Feb-15 02:29S 05°12' E 011°27'3 6.5
2018-Feb-15 02:00S 05°09' E 011°28'3 6.8
2018-Feb-15 01:30S 05°06' E 011°30'5 6.8
2018-Feb-15 00:50S 05°02' E 011°30'5 0.2
2018-Feb-14 03:58S 04°57' E 011°32'4 7.5
2018-Feb-14 03:28S 05°01' E 011°31'4 7.9
2018-Feb-14 03:00S 05°04' E 011°30'4 8.0
2018-Feb-14 02:30S 05°08' E 011°30'4 7.4
2018-Feb-14 02:00S 05°11' E 011°28'4 7.3
2018-Feb-14 01:31S 05°14' E 011°26'4 7.4
2018-Feb-14 01:00S 05°17' E 011°24'0 0.7
2018-Feb-14 00:30S 05°17' E 011°23'0 0.0
2018-Feb-14 00:00S 05°17' E 011°23'0 0.0
2018-Feb-13 23:30S 05°17' E 011°23'0 0.0
2018-Feb-13 23:00S 05°17' E 011°23'0 0.0
2018-Feb-13 22:29S 05°17' E 011°23'0 0.0
2018-Feb-13 22:00S 05°17' E 011°23'0 0.0
2018-Feb-13 21:26S 05°17' E 011°23'0 0.0
2018-Feb-13 20:59S 05°17' E 011°23'0 0.0
2018-Feb-13 20:30S 05°17' E 011°23'0 0.0
2018-Feb-13 19:59S 05°17' E 011°23'0 0.1
2018-Feb-13 19:30S 05°17' E 011°23'0 0.7
2018-Feb-13 19:00S 05°17' E 011°23'0 0.0
2018-Feb-13 18:30S 05°17' E 011°23'0 0.0
2018-Feb-13 18:00S 05°17' E 011°23'0 0.0
2018-Feb-13 17:29S 05°17' E 011°23'0 0.0
2018-Feb-13 17:00S 05°17' E 011°23'0 0.0
2018-Feb-13 16:30S 05°17' E 011°23'0 0.0
2018-Feb-13 16:00S 05°17' E 011°23'0 0.0
2018-Feb-13 15:27S 05°17' E 011°23'0 0.0
2018-Feb-13 14:59S 05°17' E 011°23'0 0.0
2018-Feb-13 14:30S 05°17' E 011°23'0 0.0
2018-Feb-13 14:00S 05°17' E 011°23'0 0.0
2018-Feb-13 13:30S 05°17' E 011°23'0 0.0
2018-Feb-13 12:58S 05°17' E 011°23'0 0.0
2018-Feb-13 12:29S 05°17' E 011°23'0 0.0
2018-Feb-13 11:55S 05°17' E 011°23'0 0.0
2018-Feb-13 11:30S 05°17' E 011°23'0 0.0
2018-Feb-13 11:00S 05°17' E 011°23'0 0.0
2018-Feb-13 10:30S 05°17' E 011°23'0 0.0
2018-Feb-13 10:00S 05°17' E 011°23'0 0.0
2018-Feb-13 09:30S 05°17' E 011°23'0 0.1
2018-Feb-13 09:00S 05°17' E 011°23'0 0.8
2018-Feb-13 08:30S 05°17' E 011°23'0 0.7
2018-Feb-13 08:00S 05°17' E 011°23'2 3.9
2018-Feb-13 07:30S 05°19' E 011°24'1 2.4
2018-Feb-13 07:00S 05°20' E 011°24'0 0.0
2018-Feb-13 06:30S 05°20' E 011°24'0 0.1
2018-Feb-13 06:00S 05°20' E 011°24'0 0.0
2018-Feb-13 05:30S 05°20' E 011°24'0 0.0
2018-Feb-13 05:01S 05°20' E 011°24'0 0.0
2018-Feb-13 04:29S 05°20' E 011°24'0 0.0
2018-Feb-13 04:00S 05°20' E 011°24'0 0.0
2018-Feb-13 03:30S 05°20' E 011°24'0 0.0
2018-Feb-13 03:00S 05°20' E 011°24'0 0.0
2018-Feb-13 02:30S 05°20' E 011°24'0 0.0
2018-Feb-13 02:00S 05°20' E 011°24'0 0.0
2018-Feb-13 01:29S 05°20' E 011°24'0 0.0
2018-Feb-13 01:00S 05°20' E 011°24'0 0.0
2018-Feb-13 00:30S 05°20' E 011°24'0 0.0
2018-Feb-13 00:00S 05°20' E 011°24'0 0.0
2018-Feb-12 23:30S 05°20' E 011°24'0 0.0
2018-Feb-12 23:00S 05°20' E 011°24'0 0.0
2018-Feb-12 22:31S 05°20' E 011°24'0 0.0
2018-Feb-12 22:00S 05°20' E 011°24'0 0.0
2018-Feb-12 21:31S 05°20' E 011°24'0 0.0
2018-Feb-12 20:59S 05°20' E 011°24'0 0.0
2018-Feb-12 20:30S 05°20' E 011°24'0 0.0
2018-Feb-12 20:00S 05°20' E 011°24'0 0.0
2018-Feb-12 19:30S 05°20' E 011°24'0 0.0
2018-Feb-12 19:00S 05°20' E 011°24'0 0.0
2018-Feb-12 18:30S 05°20' E 011°24'0 0.0
2018-Feb-12 18:00S 05°20' E 011°24'0 0.6
2018-Feb-12 17:30S 05°19' E 011°24'0 0.1
2018-Feb-12 17:00S 05°19' E 011°24'0 0.2
2018-Feb-12 16:29S 05°19' E 011°24'0 0.5
2018-Feb-12 15:59S 05°20' E 011°24'1 1.4
2018-Feb-12 15:30S 05°19' E 011°24'2 5.0
2018-Feb-12 15:00S 05°18' E 011°27'3 5.4
2018-Feb-12 14:30S 05°16' E 011°29'0 0.2
2018-Feb-12 14:00S 05°16' E 011°29'0 0.8
2018-Feb-12 13:30S 05°16' E 011°28'0 0.7
2018-Feb-12 13:00S 05°17' E 011°28'0 0.8
2018-Feb-12 12:30S 05°17' E 011°28'0 0.9
2018-Feb-12 12:00S 05°17' E 011°27'0 0.8
2018-Feb-12 11:30S 05°17' E 011°27'0 0.7
2018-Feb-12 11:00S 05°18' E 011°27'0 0.8
2018-Feb-12 10:29S 05°18' E 011°27'0 0.9
2018-Feb-12 10:00S 05°18' E 011°26'0 0.8
2018-Feb-12 09:30S 05°19' E 011°26'0 0.8
2018-Feb-12 09:00S 05°19' E 011°26'0 0.4
2018-Feb-12 08:30S 05°19' E 011°26'0 0.7
2018-Feb-12 08:00S 05°19' E 011°26'0 0.4
2018-Feb-12 07:30S 05°19' E 011°26'0 0.9
2018-Feb-12 06:58S 05°19' E 011°27'0 0.4
2018-Feb-12 06:30S 05°19' E 011°27'0 0.6
2018-Feb-12 06:00S 05°19' E 011°27'1 1.0
2018-Feb-12 05:30S 05°19' E 011°27'0 0.1
2018-Feb-12 04:59S 05°20' E 011°27'2 4.6
2018-Feb-12 04:30S 05°19' E 011°25'2 4.7
2018-Feb-12 04:01S 05°18' E 011°23'1 1.2
2018-Feb-12 03:30S 05°17' E 011°23'0 0.5
2018-Feb-12 03:00S 05°18' E 011°23'0 0.3
2018-Feb-12 02:30S 05°18' E 011°23'0 0.9
2018-Feb-12 02:00S 05°17' E 011°23'0 0.0
2018-Feb-12 01:29S 05°17' E 011°23'0 0.0
2018-Feb-12 01:00S 05°17' E 011°23'0 0.0
2018-Feb-12 00:30S 05°17' E 011°23'0 0.0
2018-Feb-12 00:00S 05°17' E 011°23'0 0.5
2018-Feb-11 23:30S 05°17' E 011°23'0 0.1
2018-Feb-11 22:58S 05°17' E 011°23'0 0.6
2018-Feb-11 22:29S 05°17' E 011°23'0 0.0
2018-Feb-11 22:00S 05°17' E 011°23'0 0.0
2018-Feb-11 21:10S 05°17' E 011°23'0 0.0
2018-Feb-11 21:00S 05°17' E 011°23'0 0.0
2018-Feb-11 20:30S 05°17' E 011°23'0 0.0
2018-Feb-11 19:49S 05°17' E 011°23'0 0.0
2018-Feb-11 19:29S 05°17' E 011°23'0 0.0
2018-Feb-11 18:58S 05°17' E 011°23'0 0.0
2018-Feb-11 18:28S 05°17' E 011°23'0 0.0
2018-Feb-11 18:00S 05°17' E 011°23'0 1.0
2018-Feb-11 17:30S 05°18' E 011°24'1 2.6
2018-Feb-11 16:58S 05°17' E 011°24'4 7.7
2018-Feb-11 16:30S 05°14' E 011°26'4 7.7
2018-Feb-11 15:59S 05°10' E 011°28'4 7.3
2018-Feb-11 15:29S 05°06' E 011°29'4 7.4
2018-Feb-11 15:00S 05°03' E 011°29'4 7.3
2018-Feb-11 14:29S 04°59' E 011°30'4 7.4
2018-Feb-11 14:00S 04°56' E 011°32'  
Track history (hours):
 
Tides and Currents Weather Stations Pressure Air Temp Water Temp Dewpoint Dewpoint Depression Visibility Wind Speed Wind Dir Waves Ship Positions

Bourbon Explorer 504

Last reported at 2018-Feb-21 05:00 UTC. Time now 2018-Feb-21 05:28 UTC.
Position S 05°07' E 011°30'.

Length 78 m; draft 5.7 m.

Type: Other ship. MMSI: 228094700.

Date/timePositionNaut miles runAvg speedWind from/ knotsBaromVisibWave heightAir tempDewpointWater temp
2018-Feb-21 05:00S 05°07' E 011°30'3 5.9
2018-Feb-21 04:30S 05°09' E 011°29'3 5.9
2018-Feb-21 04:00S 05°12' E 011°27'3 5.5
2018-Feb-21 03:30S 05°14' E 011°26'3 5.5
2018-Feb-21 02:59S 05°16' E 011°24'1 2.0
2018-Feb-21 02:28S 05°17' E 011°23'0 0.0
2018-Feb-21 02:00S 05°17' E 011°23'0 0.0
2018-Feb-21 01:30S 05°17' E 011°23'0 0.0
2018-Feb-21 00:54S 05°17' E 011°23'0 0.0
2018-Feb-21 00:30S 05°17' E 011°23'0 0.0
2018-Feb-20 23:59S 05°17' E 011°23'0 0.0
2018-Feb-20 23:29S 05°17' E 011°23'0 0.0
2018-Feb-20 22:50S 05°17' E 011°23'0 0.0
2018-Feb-20 22:30S 05°17' E 011°23'0 0.1
2018-Feb-20 22:00S 05°17' E 011°23'0 0.0
2018-Feb-20 21:30S 05°17' E 011°23'0 0.1
2018-Feb-20 21:01S 05°17' E 011°23'0 0.2
2018-Feb-20 20:30S 05°17' E 011°23'0 0.0
2018-Feb-20 20:00S 05°17' E 011°23'0 0.2
2018-Feb-20 19:29S 05°17' E 011°23'0 0.4
2018-Feb-20 19:00S 05°17' E 011°23'0 0.1
2018-Feb-20 18:30S 05°17' E 011°23'0 0.0
2018-Feb-20 18:00S 05°17' E 011°23'0 0.1
2018-Feb-20 17:30S 05°17' E 011°23'0 0.0
2018-Feb-20 17:00S 05°17' E 011°23'0 0.1
2018-Feb-20 16:30S 05°17' E 011°23'0 0.0
2018-Feb-20 16:00S 05°17' E 011°23'0 0.2
2018-Feb-20 15:30S 05°17' E 011°23'1 2.1
2018-Feb-20 14:48S 05°19' E 011°23'1 4.5
2018-Feb-20 14:30S 05°20' E 011°24'0 0.8
2018-Feb-20 14:00S 05°20' E 011°24'0 0.0
2018-Feb-20 13:30S 05°20' E 011°24'0 0.0
2018-Feb-20 13:00S 05°20' E 011°24'0 0.1
2018-Feb-20 12:30S 05°20' E 011°24'0 0.0
2018-Feb-20 12:00S 05°20' E 011°24'0 0.0
2018-Feb-20 11:30S 05°20' E 011°24'0 0.0
2018-Feb-20 10:59S 05°20' E 011°24'0 0.0
2018-Feb-20 10:31S 05°20' E 011°24'0 0.5
2018-Feb-20 10:00S 05°20' E 011°24'0 0.3
2018-Feb-20 09:30S 05°20' E 011°23'2 4.2
2018-Feb-20 09:01S 05°18' E 011°23'0 0.8
2018-Feb-20 08:30S 05°17' E 011°23'0 0.7
2018-Feb-20 08:00S 05°17' E 011°23'0 0.4
2018-Feb-20 07:30S 05°17' E 011°23'1 1.3
2018-Feb-20 07:00S 05°17' E 011°24'0 0.0
2018-Feb-20 06:30S 05°17' E 011°24'0 0.1
2018-Feb-20 05:59S 05°17' E 011°24'1 1.3
2018-Feb-20 05:30S 05°17' E 011°24'2 4.4
2018-Feb-20 04:59S 05°15' E 011°25'2 4.6
2018-Feb-20 04:30S 05°12' E 011°26'2 4.0
2018-Feb-20 03:58S 05°10' E 011°27'2 4.7
2018-Feb-20 03:30S 05°09' E 011°27'2 4.6
2018-Feb-20 03:00S 05°06' E 011°28'3 4.6
2018-Feb-20 02:28S 05°04' E 011°29'2 4.5
2018-Feb-20 02:00S 05°02' E 011°29'3 4.8
2018-Feb-20 01:29S 04°60' E 011°30'4 0.1
2018-Feb-18 20:08S 05°04' E 011°31'0 3.5
2018-Feb-18 20:00S 05°04' E 011°31'2 3.4
2018-Feb-18 19:30S 05°06' E 011°30'2 3.7
2018-Feb-18 18:57S 05°08' E 011°30'2 3.6
2018-Feb-18 18:30S 05°09' E 011°29'2 3.3
2018-Feb-18 18:00S 05°10' E 011°28'2 3.2
2018-Feb-18 17:30S 05°12' E 011°27'1 2.9
2018-Feb-18 17:00S 05°13' E 011°26'1 2.7
2018-Feb-18 16:30S 05°14' E 011°25'2 2.9
2018-Feb-18 15:59S 05°15' E 011°24'2 3.7
2018-Feb-18 15:30S 05°16' E 011°23'1 1.5
2018-Feb-18 15:00S 05°17' E 011°23'0 0.0
2018-Feb-18 14:30S 05°17' E 011°23'0 0.0
2018-Feb-18 14:00S 05°17' E 011°23'0 0.0
2018-Feb-18 13:30S 05°17' E 011°23'0 0.0
2018-Feb-18 13:00S 05°17' E 011°23'0 0.1
2018-Feb-18 12:30S 05°17' E 011°23'0 0.4
2018-Feb-18 12:00S 05°17' E 011°23'0 0.5
2018-Feb-18 11:30S 05°17' E 011°23'0 0.0
2018-Feb-18 11:00S 05°17' E 011°23'0 0.0
2018-Feb-18 10:30S 05°17' E 011°23'0 0.0
2018-Feb-18 10:00S 05°17' E 011°23'0 0.0
2018-Feb-18 09:29S 05°17' E 011°23'0 0.1
2018-Feb-18 09:00S 05°17' E 011°23'0 0.0
2018-Feb-18 08:30S 05°17' E 011°23'0 0.9
2018-Feb-18 08:00S 05°17' E 011°23'1 1.3
2018-Feb-18 07:30S 05°17' E 011°23'0 0.8
2018-Feb-18 07:00S 05°17' E 011°23'0 0.0
2018-Feb-18 06:20S 05°17' E 011°23'0 0.2
2018-Feb-18 06:00S 05°17' E 011°23'0 0.0
2018-Feb-18 05:30S 05°17' E 011°23'0 0.1
2018-Feb-18 05:00S 05°17' E 011°23'0 0.6
2018-Feb-18 04:30S 05°17' E 011°23'0 0.0
2018-Feb-18 04:00S 05°17' E 011°23'0 0.0
2018-Feb-18 03:30S 05°17' E 011°23'0 0.0
2018-Feb-18 02:59S 05°17' E 011°23'0 0.3
2018-Feb-18 02:30S 05°17' E 011°23'0 0.0
2018-Feb-18 02:00S 05°17' E 011°23'0 0.0
2018-Feb-18 01:30S 05°17' E 011°23'0 0.0
2018-Feb-18 01:00S 05°17' E 011°23'0 0.0
2018-Feb-18 00:05S 05°17' E 011°23'0 0.0
2018-Feb-18 00:00S 05°17' E 011°23'0 0.0
2018-Feb-17 23:19S 05°17' E 011°23'0 0.0
2018-Feb-17 23:00S 05°17' E 011°23'0 0.0
2018-Feb-17 22:30S 05°17' E 011°23'0 0.0
2018-Feb-17 22:00S 05°17' E 011°23'0 0.0
2018-Feb-17 21:29S 05°17' E 011°23'0 0.0
2018-Feb-17 20:59S 05°17' E 011°23'0 0.0
2018-Feb-17 20:30S 05°17' E 011°23'0 0.0
2018-Feb-17 19:59S 05°17' E 011°23'0 0.0
2018-Feb-17 19:30S 05°17' E 011°23'0 0.0
2018-Feb-17 18:59S 05°17' E 011°23'0 0.0
2018-Feb-17 18:28S 05°17' E 011°23'0 0.0
2018-Feb-17 18:00S 05°17' E 011°23'0 0.0
2018-Feb-17 17:30S 05°17' E 011°23'0 0.0
2018-Feb-17 17:00S 05°17' E 011°23'0 0.0
2018-Feb-17 16:30S 05°17' E 011°23'0 0.0
2018-Feb-17 16:00S 05°17' E 011°23'0 0.0
2018-Feb-17 15:24S 05°17' E 011°23'0 0.0
2018-Feb-17 15:00S 05°17' E 011°23'0 0.0
2018-Feb-17 14:29S 05°17' E 011°23'0 0.0
2018-Feb-17 13:52S 05°17' E 011°23'0 0.0
2018-Feb-17 13:19S 05°17' E 011°23'0 0.0
2018-Feb-17 13:00S 05°17' E 011°23'0 0.0
2018-Feb-17 12:24S 05°17' E 011°23'0 0.0
2018-Feb-17 12:00S 05°17' E 011°23'0 0.0
2018-Feb-17 11:11S 05°17' E 011°23'0 0.0
2018-Feb-17 10:59S 05°17' E 011°23'0 0.1
2018-Feb-17 10:30S 05°17' E 011°23'0 0.3
2018-Feb-17 10:00S 05°17' E 011°23'0 0.1
2018-Feb-17 09:31S 05°17' E 011°23'0 0.6
2018-Feb-17 09:00S 05°17' E 011°23'0 0.1
2018-Feb-17 08:29S 05°17' E 011°23'0 0.0
2018-Feb-17 07:59S 05°17' E 011°23'0 0.1
2018-Feb-17 07:28S 05°17' E 011°23'0 0.7
2018-Feb-17 07:00S 05°17' E 011°23'1 2.3
2018-Feb-17 06:30S 05°16' E 011°23'0 0.1
2018-Feb-17 05:59S 05°16' E 011°23'0 0.2
2018-Feb-17 05:30S 05°16' E 011°23'0 0.3
2018-Feb-17 05:00S 05°16' E 011°23'0 0.3
2018-Feb-17 04:30S 05°16' E 011°23'0 0.4
2018-Feb-17 04:00S 05°16' E 011°23'0 0.4
2018-Feb-17 03:30S 05°17' E 011°22'0 0.3
2018-Feb-17 03:00S 05°17' E 011°22'0 0.2
2018-Feb-17 02:29S 05°17' E 011°22'0 0.3
2018-Feb-17 02:00S 05°17' E 011°22'0 0.2
2018-Feb-17 01:30S 05°17' E 011°22'0 0.1
2018-Feb-17 01:00S 05°17' E 011°22'0 0.1
2018-Feb-17 00:30S 05°17' E 011°22'0 0.1
2018-Feb-17 00:00S 05°17' E 011°22'2 3.7
2018-Feb-16 23:30S 05°16' E 011°20'3 5.2
2018-Feb-16 23:00S 05°15' E 011°18'3 5.3
2018-Feb-16 22:30S 05°15' E 011°15'1 2.7
2018-Feb-16 22:00S 05°15' E 011°14'0 0.0
2018-Feb-16 21:30S 05°15' E 011°14'0 0.0
2018-Feb-16 21:00S 05°15' E 011°14'0 0.0
2018-Feb-16 20:29S 05°15' E 011°14'0 0.0
2018-Feb-16 20:00S 05°15' E 011°14'0 0.0
2018-Feb-16 19:30S 05°15' E 011°14'0 0.0
2018-Feb-16 18:58S 05°15' E 011°14'0 0.0
2018-Feb-16 18:30S 05°15' E 011°14'0 0.0
2018-Feb-16 18:00S 05°15' E 011°14'0 0.1
2018-Feb-16 17:30S 05°15' E 011°14'0 0.9
2018-Feb-16 17:00S 05°14' E 011°14'0 1.0
2018-Feb-16 16:30S 05°14' E 011°15'4 7.0
2018-Feb-16 15:58S 05°16' E 011°18'3 6.4
2018-Feb-16 15:30S 05°16' E 011°21'3 5.7
2018-Feb-16 15:00S 05°17' E 011°24'1 1.5
2018-Feb-16 14:30S 05°16' E 011°24'0 0.7
2018-Feb-16 13:59S 05°16' E 011°24'1 1.2
2018-Feb-16 13:29S 05°16' E 011°25'0 0.5
2018-Feb-16 12:59S 05°16' E 011°25'0 0.6
2018-Feb-16 12:30S 05°17' E 011°25'0 0.6
2018-Feb-16 12:00S 05°17' E 011°26'0 0.5
2018-Feb-16 11:30S 05°17' E 011°26'0 0.5
2018-Feb-16 11:00S 05°17' E 011°26'0 0.5
2018-Feb-16 10:30S 05°17' E 011°26'0 0.5
2018-Feb-16 10:00S 05°18' E 011°26'0 0.5
2018-Feb-16 09:30S 05°18' E 011°26'0 0.5
2018-Feb-16 09:00S 05°18' E 011°26'0 0.6
2018-Feb-16 08:30S 05°18' E 011°27'0 0.6
2018-Feb-16 08:00S 05°19' E 011°27'0 0.5
2018-Feb-16 07:28S 05°19' E 011°27'0 0.6
2018-Feb-16 07:01S 05°19' E 011°27'2 3.9
2018-Feb-16 06:30S 05°19' E 011°25'2 4.5
2018-Feb-16 06:00S 05°18' E 011°23'0 0.6
2018-Feb-16 05:28S 05°18' E 011°22'0 0.5
2018-Feb-16 05:00S 05°18' E 011°23'0 0.3
2018-Feb-16 04:28S 05°18' E 011°23'0 0.4
2018-Feb-16 04:00S 05°18' E 011°23'0 0.4
2018-Feb-16 03:30S 05°18' E 011°23'1 1.6
2018-Feb-16 03:00S 05°18' E 011°23'2 3.3
2018-Feb-16 02:30S 05°20' E 011°24'0 0.1
2018-Feb-16 02:00S 05°20' E 011°24'0 0.0
2018-Feb-16 01:30S 05°20' E 011°24'0 0.0
2018-Feb-16 01:00S 05°20' E 011°24'0 0.0
2018-Feb-16 00:30S 05°20' E 011°24'0 0.0
2018-Feb-16 00:00S 05°20' E 011°24'0 0.0
2018-Feb-15 23:30S 05°20' E 011°24'0 0.0
2018-Feb-15 23:00S 05°20' E 011°24'0 0.0
2018-Feb-15 22:30S 05°20' E 011°24'0 0.1
2018-Feb-15 22:00S 05°20' E 011°24'0 0.0
2018-Feb-15 21:30S 05°20' E 011°24'0 0.0
2018-Feb-15 21:00S 05°20' E 011°24'0 0.0
2018-Feb-15 20:30S 05°20' E 011°24'0 0.0
2018-Feb-15 20:00S 05°20' E 011°24'0 0.0
2018-Feb-15 19:30S 05°20' E 011°24'0 0.0
2018-Feb-15 18:59S 05°20' E 011°24'0 0.0
2018-Feb-15 18:30S 05°20' E 011°24'0 0.0
2018-Feb-15 18:00S 05°20' E 011°24'0 0.0
2018-Feb-15 17:30S 05°20' E 011°24'0 0.0
2018-Feb-15 17:00S 05°20' E 011°24'0 0.0
2018-Feb-15 16:30S 05°20' E 011°24'0 0.0
2018-Feb-15 16:00S 05°20' E 011°24'0 0.0
2018-Feb-15 15:30S 05°20' E 011°24'0 0.0
2018-Feb-15 15:00S 05°20' E 011°24'0 0.0
2018-Feb-15 14:30S 05°20' E 011°24'0 0.0
2018-Feb-15 14:00S 05°20' E 011°24'0 0.0
2018-Feb-15 13:30S 05°20' E 011°24'0 0.4
2018-Feb-15 13:00S 05°20' E 011°24'1 1.9
2018-Feb-15 12:30S 05°19' E 011°24'3 6.5
2018-Feb-15 12:00S 05°20' E 011°28'0 0.6
2018-Feb-15 11:29S 05°20' E 011°28'0 0.4
2018-Feb-15 11:00S 05°20' E 011°28'0 0.3
2018-Feb-15 10:30S 05°20' E 011°28'0 0.3
2018-Feb-15 10:00S 05°20' E 011°28'0 0.3
2018-Feb-15 09:30S 05°20' E 011°28'0 0.1
2018-Feb-15 08:59S 05°20' E 011°28'0 0.2
2018-Feb-15 08:30S 05°20' E 011°28'0 0.4
2018-Feb-15 08:00S 05°19' E 011°28'0 0.3
2018-Feb-15 06:21S 05°19' E 011°28'0 0.5
2018-Feb-15 05:59S 05°19' E 011°29'1 2.1
2018-Feb-15 05:30S 05°19' E 011°28'3 5.3
2018-Feb-15 05:00S 05°19' E 011°25'1 2.7
2018-Feb-15 04:29S 05°20' E 011°24'0 0.9
2018-Feb-15 04:00S 05°19' E 011°24'1 2.8
2018-Feb-15 03:28S 05°18' E 011°25'3 6.4
2018-Feb-15 03:00S 05°15' E 011°26'3 6.5
2018-Feb-15 02:29S 05°12' E 011°27'3 6.5
2018-Feb-15 02:00S 05°09' E 011°28'3 6.8
2018-Feb-15 01:30S 05°06' E 011°30'5 6.8
2018-Feb-15 00:50S 05°02' E 011°30'5 0.2
2018-Feb-14 03:58S 04°57' E 011°32'4 7.5
2018-Feb-14 03:28S 05°01' E 011°31'4 7.9
2018-Feb-14 03:00S 05°04' E 011°30'4 8.0
2018-Feb-14 02:30S 05°08' E 011°30'4 7.4
2018-Feb-14 02:00S 05°11' E 011°28'4 7.3
2018-Feb-14 01:31S 05°14' E 011°26'4 7.4
2018-Feb-14 01:00S 05°17' E 011°24'0 0.7
2018-Feb-14 00:30S 05°17' E 011°23'0 0.0
2018-Feb-14 00:00S 05°17' E 011°23'0 0.0
2018-Feb-13 23:30S 05°17' E 011°23'0 0.0
2018-Feb-13 23:00S 05°17' E 011°23'0 0.0
2018-Feb-13 22:29S 05°17' E 011°23'0 0.0
2018-Feb-13 22:00S 05°17' E 011°23'0 0.0
2018-Feb-13 21:26S 05°17' E 011°23'0 0.0
2018-Feb-13 20:59S 05°17' E 011°23'0 0.0
2018-Feb-13 20:30S 05°17' E 011°23'0 0.0
2018-Feb-13 19:59S 05°17' E 011°23'0 0.1
2018-Feb-13 19:30S 05°17' E 011°23'0 0.7
2018-Feb-13 19:00S 05°17' E 011°23'0 0.0
2018-Feb-13 18:30S 05°17' E 011°23'0 0.0
2018-Feb-13 18:00S 05°17' E 011°23'0 0.0
2018-Feb-13 17:29S 05°17' E 011°23'0 0.0
2018-Feb-13 17:00S 05°17' E 011°23'0 0.0
2018-Feb-13 16:30S 05°17' E 011°23'0 0.0
2018-Feb-13 16:00S 05°17' E 011°23'0 0.0
2018-Feb-13 15:27S 05°17' E 011°23'0 0.0
2018-Feb-13 14:59S 05°17' E 011°23'0 0.0
2018-Feb-13 14:30S 05°17' E 011°23'0 0.0
2018-Feb-13 14:00S 05°17' E 011°23'0 0.0
2018-Feb-13 13:30S 05°17' E 011°23'0 0.0
2018-Feb-13 12:58S 05°17' E 011°23'0 0.0
2018-Feb-13 12:29S 05°17' E 011°23'0 0.0
2018-Feb-13 11:55S 05°17' E 011°23'0 0.0
2018-Feb-13 11:30S 05°17' E 011°23'0 0.0
2018-Feb-13 11:00S 05°17' E 011°23'0 0.0
2018-Feb-13 10:30S 05°17' E 011°23'0 0.0
2018-Feb-13 10:00S 05°17' E 011°23'0 0.0
2018-Feb-13 09:30S 05°17' E 011°23'0 0.1
2018-Feb-13 09:00S 05°17' E 011°23'0 0.8
2018-Feb-13 08:30S 05°17' E 011°23'0 0.7
2018-Feb-13 08:00S 05°17' E 011°23'2 3.9
2018-Feb-13 07:30S 05°19' E 011°24'1 2.4
2018-Feb-13 07:00S 05°20' E 011°24'0 0.0
2018-Feb-13 06:30S 05°20' E 011°24'0 0.1
2018-Feb-13 06:00S 05°20' E 011°24'0 0.0
2018-Feb-13 05:30S 05°20' E 011°24'0 0.0
2018-Feb-13 05:01S 05°20' E 011°24'0 0.0
2018-Feb-13 04:29S 05°20' E 011°24'0 0.0
2018-Feb-13 04:00S 05°20' E 011°24'0 0.0
2018-Feb-13 03:30S 05°20' E 011°24'0 0.0
2018-Feb-13 03:00S 05°20' E 011°24'0 0.0
2018-Feb-13 02:30S 05°20' E 011°24'0 0.0
2018-Feb-13 02:00S 05°20' E 011°24'0 0.0
2018-Feb-13 01:29S 05°20' E 011°24'0 0.0
2018-Feb-13 01:00S 05°20' E 011°24'0 0.0
2018-Feb-13 00:30S 05°20' E 011°24'0 0.0
2018-Feb-13 00:00S 05°20' E 011°24'0 0.0
2018-Feb-12 23:30S 05°20' E 011°24'0 0.0
2018-Feb-12 23:00S 05°20' E 011°24'0 0.0
2018-Feb-12 22:31S 05°20' E 011°24'0 0.0
2018-Feb-12 22:00S 05°20' E 011°24'0 0.0
2018-Feb-12 21:31S 05°20' E 011°24'0 0.0
2018-Feb-12 20:59S 05°20' E 011°24'0 0.0
2018-Feb-12 20:30S 05°20' E 011°24'0 0.0
2018-Feb-12 20:00S 05°20' E 011°24'0 0.0
2018-Feb-12 19:30S 05°20' E 011°24'0 0.0
2018-Feb-12 19:00S 05°20' E 011°24'0 0.0
2018-Feb-12 18:30S 05°20' E 011°24'0 0.0
2018-Feb-12 18:00S 05°20' E 011°24'0 0.6
2018-Feb-12 17:30S 05°19' E 011°24'0 0.1
2018-Feb-12 17:00S 05°19' E 011°24'0 0.2
2018-Feb-12 16:29S 05°19' E 011°24'0 0.5
2018-Feb-12 15:59S 05°20' E 011°24'1 1.4
2018-Feb-12 15:30S 05°19' E 011°24'2 5.0
2018-Feb-12 15:00S 05°18' E 011°27'3 5.4
2018-Feb-12 14:30S 05°16' E 011°29'0 0.2
2018-Feb-12 14:00S 05°16' E 011°29'0 0.8
2018-Feb-12 13:30S 05°16' E 011°28'0 0.7
2018-Feb-12 13:00S 05°17' E 011°28'0 0.8
2018-Feb-12 12:30S 05°17' E 011°28'0 0.9
2018-Feb-12 12:00S 05°17' E 011°27'0 0.8
2018-Feb-12 11:30S 05°17' E 011°27'0 0.7
2018-Feb-12 11:00S 05°18' E 011°27'0 0.8
2018-Feb-12 10:29S 05°18' E 011°27'0 0.9
2018-Feb-12 10:00S 05°18' E 011°26'0 0.8
2018-Feb-12 09:30S 05°19' E 011°26'0 0.8
2018-Feb-12 09:00S 05°19' E 011°26'0 0.4
2018-Feb-12 08:30S 05°19' E 011°26'0 0.7
2018-Feb-12 08:00S 05°19' E 011°26'0 0.4
2018-Feb-12 07:30S 05°19' E 011°26'0 0.9
2018-Feb-12 06:58S 05°19' E 011°27'0 0.4
2018-Feb-12 06:30S 05°19' E 011°27'0 0.6
2018-Feb-12 06:00S 05°19' E 011°27'1 1.0
2018-Feb-12 05:30S 05°19' E 011°27'0 0.1
2018-Feb-12 04:59S 05°20' E 011°27'2 4.6
2018-Feb-12 04:30S 05°19' E 011°25'2 4.7
2018-Feb-12 04:01S 05°18' E 011°23'1 1.2
2018-Feb-12 03:30S 05°17' E 011°23'0 0.5
2018-Feb-12 03:00S 05°18' E 011°23'0 0.3
2018-Feb-12 02:30S 05°18' E 011°23'0 0.9
2018-Feb-12 02:00S 05°17' E 011°23'0 0.0
2018-Feb-12 01:29S 05°17' E 011°23'0 0.0
2018-Feb-12 01:00S 05°17' E 011°23'0 0.0
2018-Feb-12 00:30S 05°17' E 011°23'0 0.0
2018-Feb-12 00:00S 05°17' E 011°23'0 0.5
2018-Feb-11 23:30S 05°17' E 011°23'0 0.1
2018-Feb-11 22:58S 05°17' E 011°23'0 0.6
2018-Feb-11 22:29S 05°17' E 011°23'0 0.0
2018-Feb-11 22:00S 05°17' E 011°23'0 0.0
2018-Feb-11 21:10S 05°17' E 011°23'0 0.0
2018-Feb-11 21:00S 05°17' E 011°23'0 0.0
2018-Feb-11 20:30S 05°17' E 011°23'0 0.0
2018-Feb-11 19:49S 05°17' E 011°23'0 0.0
2018-Feb-11 19:29S 05°17' E 011°23'0 0.0
2018-Feb-11 18:58S 05°17' E 011°23'0 0.0
2018-Feb-11 18:28S 05°17' E 011°23'0 0.0
2018-Feb-11 18:00S 05°17' E 011°23'0 1.0
2018-Feb-11 17:30S 05°18' E 011°24'1 2.6
2018-Feb-11 16:58S 05°17' E 011°24'4 7.7
2018-Feb-11 16:30S 05°14' E 011°26'4 7.7
2018-Feb-11 15:59S 05°10' E 011°28'4 7.3
2018-Feb-11 15:29S 05°06' E 011°29'4 7.4
2018-Feb-11 15:00S 05°03' E 011°29'4 7.3
2018-Feb-11 14:29S 04°59' E 011°30'4 7.4
2018-Feb-11 14:00S 04°56' E 011°32'  

Dump ship's entire track history